createdAt,value
2024-03-08T00:00:29.159Z,7.84
2024-03-08T00:02:55.743Z,7.90
2024-03-08T00:05:22.703Z,7.95
2024-03-08T00:07:49.663Z,7.90
2024-03-08T00:10:16.535Z,8.02
2024-03-08T00:12:45.270Z,8.09
2024-03-08T00:15:15.361Z,8.13
2024-03-08T00:17:42.984Z,8.16
2024-03-08T00:20:09.893Z,8.12
2024-03-08T00:22:37.138Z,8.11
2024-03-08T00:25:04.811Z,8.14
2024-03-08T00:27:34.746Z,8.12
2024-03-08T00:30:01.865Z,8.18
2024-03-08T00:32:28.762Z,8.24
2024-03-08T00:34:55.655Z,8.22
2024-03-08T00:37:23.031Z,8.13
2024-03-08T00:39:53.193Z,8.29
2024-03-08T00:42:21.339Z,8.29
2024-03-08T00:44:49.330Z,8.19
2024-03-08T00:47:16.004Z,8.37
2024-03-08T00:49:43.197Z,8.35
2024-03-08T00:52:10.168Z,8.37
2024-03-08T00:54:39.625Z,8.35
2024-03-08T00:57:08.029Z,8.38
2024-03-08T00:59:35.033Z,8.39
2024-03-08T01:02:03.002Z,8.43
2024-03-08T01:04:34.095Z,8.39
2024-03-08T01:07:01.056Z,8.38
2024-03-08T01:09:28.525Z,8.30
2024-03-08T01:11:58.383Z,8.28
2024-03-08T01:14:27.044Z,8.35
2024-03-08T01:16:53.823Z,8.31
2024-03-08T01:19:20.369Z,8.28
2024-03-08T01:21:47.509Z,8.19
2024-03-08T01:24:14.242Z,8.24
2024-03-08T01:26:40.975Z,8.24
2024-03-08T01:29:07.682Z,8.21
2024-03-08T01:31:34.860Z,8.28
2024-03-08T01:34:01.405Z,8.32
2024-03-08T01:36:27.931Z,8.26
2024-03-08T01:38:54.836Z,8.26
2024-03-08T01:41:21.430Z,8.28
2024-03-08T01:43:48.057Z,8.28
2024-03-08T01:46:18.695Z,8.09
2024-03-08T01:48:46.180Z,8.31
2024-03-08T01:51:13.549Z,8.37
2024-03-08T01:53:41.356Z,8.34
2024-03-08T01:56:08.031Z,8.41
2024-03-08T01:58:35.107Z,8.39
2024-03-08T02:01:05.532Z,8.43
2024-03-08T02:03:33.019Z,8.44
2024-03-08T02:06:02.307Z,8.42
2024-03-08T02:08:30.456Z,8.46
2024-03-08T02:10:57.045Z,8.47
2024-03-08T02:13:23.599Z,8.45
2024-03-08T02:16:00.410Z,8.49
2024-03-08T02:18:28.534Z,8.51
2024-03-08T02:21:05.833Z,8.42
2024-03-08T02:23:33.264Z,8.46
2024-03-08T02:26:00.218Z,8.48
2024-03-08T02:28:26.731Z,8.41
2024-03-08T02:30:59.673Z,8.40
2024-03-08T02:33:28.242Z,8.38
2024-03-08T02:35:55.012Z,8.36
2024-03-08T02:38:23.366Z,8.40
2024-03-08T02:40:52.306Z,8.41
2024-03-08T02:43:20.649Z,8.47
2024-03-08T02:45:47.803Z,8.53
2024-03-08T02:48:15.734Z,8.51
2024-03-08T02:50:43.911Z,8.50
2024-03-08T02:53:11.380Z,8.50
2024-03-08T02:55:40.325Z,8.44
2024-03-08T02:58:09.817Z,8.51
2024-03-08T03:00:37.185Z,8.55
2024-03-08T03:03:04.430Z,8.43
2024-03-08T03:05:31.411Z,8.54
2024-03-08T03:07:59.289Z,8.53
2024-03-08T03:10:26.948Z,8.48
2024-03-08T03:12:53.889Z,8.46
2024-03-08T03:15:21.077Z,8.49
2024-03-08T03:17:49.352Z,8.50
2024-03-08T03:20:22.749Z,8.56
2024-03-08T03:22:55.567Z,8.51
2024-03-08T03:25:26.854Z,8.50
2024-03-08T03:27:54.189Z,8.36
2024-03-08T03:30:22.388Z,8.40
2024-03-08T03:32:52.447Z,8.43
2024-03-08T03:35:21.675Z,8.47
2024-03-08T03:38:07.154Z,8.49
2024-03-08T03:40:41.496Z,8.55
2024-03-08T03:43:08.936Z,8.55
2024-03-08T03:45:37.166Z,8.39
2024-03-08T03:48:06.359Z,8.46
2024-03-08T03:50:35.976Z,8.47
2024-03-08T03:53:09.518Z,8.43
2024-03-08T03:55:39.961Z,8.51
2024-03-08T03:58:07.488Z,8.38
2024-03-08T04:00:34.040Z,8.43
2024-03-08T04:03:01.983Z,8.28
2024-03-08T04:05:29.065Z,8.29
2024-03-08T04:07:55.794Z,8.30
2024-03-08T04:10:22.543Z,8.23
2024-03-08T04:12:49.040Z,7.97
2024-03-08T04:15:16.496Z,8.22
2024-03-08T04:17:43.234Z,8.24
2024-03-08T04:20:11.370Z,8.24
2024-03-08T04:22:39.072Z,8.31
2024-03-08T04:25:06.873Z,8.36
2024-03-08T04:27:37.034Z,8.37
2024-03-08T04:30:04.482Z,8.31
2024-03-08T04:32:33.552Z,8.40
2024-03-08T04:35:02.384Z,8.40
2024-03-08T04:37:30.854Z,8.25
2024-03-08T04:39:57.904Z,8.23
2024-03-08T04:42:25.310Z,8.28
2024-03-08T04:44:52.258Z,8.25
2024-03-08T04:47:19.078Z,8.28
2024-03-08T04:49:45.803Z,8.27
2024-03-08T04:52:13.214Z,8.24
2024-03-08T04:54:40.191Z,8.23
2024-03-08T04:57:09.253Z,8.27
2024-03-08T04:59:37.527Z,8.27
2024-03-08T05:02:04.630Z,8.14
2024-03-08T05:04:31.344Z,8.20
2024-03-08T05:06:58.262Z,8.15
2024-03-08T05:09:24.920Z,8.18
2024-03-08T05:11:51.730Z,8.20
2024-03-08T05:14:18.558Z,8.21
2024-03-08T05:16:49.878Z,8.20
2024-03-08T05:19:20.823Z,8.22
2024-03-08T05:21:48.203Z,8.19
2024-03-08T05:24:16.623Z,8.24
2024-03-08T05:26:43.853Z,8.22
2024-03-08T05:29:10.833Z,8.29
2024-03-08T05:31:59.049Z,8.31
2024-03-08T05:34:26.027Z,8.32
2024-03-08T05:36:52.743Z,8.37
2024-03-08T05:39:20.921Z,8.43
2024-03-08T05:41:48.027Z,8.42
2024-03-08T05:44:18.914Z,8.42
2024-03-08T05:46:45.806Z,8.49
2024-03-08T05:49:14.009Z,8.38
2024-03-08T05:51:41.546Z,8.38
2024-03-08T05:54:14.605Z,8.40
2024-03-08T05:56:49.365Z,8.33
2024-03-08T05:59:21.082Z,8.45
2024-03-08T06:01:57.010Z,8.45
2024-03-08T06:04:26.737Z,8.21
2024-03-08T06:06:56.811Z,8.33
2024-03-08T06:09:25.179Z,8.29
2024-03-08T06:11:55.759Z,8.18
2024-03-08T06:14:22.948Z,8.30
2024-03-08T06:16:51.562Z,8.40
2024-03-08T06:19:18.508Z,8.46
2024-03-08T06:21:45.116Z,8.43
2024-03-08T06:24:11.842Z,8.50
2024-03-08T06:26:40.070Z,8.35
2024-03-08T06:29:08.079Z,8.50
2024-03-08T06:31:34.842Z,8.48
2024-03-08T06:34:01.717Z,8.36
2024-03-08T06:36:29.338Z,8.40
2024-03-08T06:38:56.091Z,8.35
2024-03-08T06:41:22.663Z,8.49
2024-03-08T06:43:50.244Z,8.41
2024-03-08T06:46:17.370Z,8.46
2024-03-08T06:48:44.759Z,8.41
2024-03-08T06:51:12.225Z,8.43
2024-03-08T06:53:39.810Z,8.39
2024-03-08T06:56:06.736Z,8.42
2024-03-08T06:58:33.901Z,8.43
2024-03-08T07:01:02.371Z,8.37
2024-03-08T07:03:30.684Z,8.37
2024-03-08T07:05:59.509Z,8.48
2024-03-08T07:08:28.809Z,8.54
2024-03-08T07:10:55.927Z,8.57
2024-03-08T07:13:22.636Z,8.63
2024-03-08T07:15:49.262Z,8.52
2024-03-08T07:18:16.448Z,8.70
2024-03-08T07:20:44.796Z,8.68
2024-03-08T07:23:11.860Z,8.74
2024-03-08T07:25:40.748Z,8.72
2024-03-08T07:28:09.678Z,8.78
2024-03-08T07:30:47.370Z,8.73
2024-03-08T07:33:14.449Z,8.66
2024-03-08T07:35:42.195Z,8.71
2024-03-08T07:38:11.295Z,8.70
2024-03-08T07:40:48.615Z,8.76
2024-03-08T07:43:15.445Z,8.78
2024-03-08T07:45:41.965Z,8.79
2024-03-08T07:48:12.527Z,8.83
2024-03-08T07:50:41.215Z,8.87
2024-03-08T07:53:09.451Z,8.87
2024-03-08T07:55:37.098Z,8.82
2024-03-08T07:58:04.536Z,8.79
2024-03-08T08:00:33.119Z,8.94
2024-03-08T08:03:00.013Z,8.97
2024-03-08T08:05:27.590Z,9.01
2024-03-08T08:07:54.626Z,9.09
2024-03-08T08:10:26.685Z,9.04
2024-03-08T08:12:53.679Z,9.12
2024-03-08T08:15:20.606Z,9.08
2024-03-08T08:17:48.973Z,9.06
2024-03-08T08:20:16.397Z,9.17
2024-03-08T08:22:46.790Z,9.20
2024-03-08T08:25:14.690Z,9.20
2024-03-08T08:27:41.549Z,9.23
2024-03-08T08:30:09.693Z,9.32
2024-03-08T08:32:48.399Z,9.35
2024-03-08T08:35:15.397Z,9.37
2024-03-08T08:37:42.535Z,9.17
2024-03-08T08:40:16.315Z,9.33
2024-03-08T08:42:43.804Z,9.39
2024-03-08T08:45:16.021Z,9.36
2024-03-08T08:47:44.391Z,9.35
2024-03-08T08:50:12.906Z,9.33
2024-03-08T08:52:40.959Z,9.31
2024-03-08T08:55:07.924Z,9.25
2024-03-08T08:57:34.487Z,9.32
2024-03-08T09:00:01.621Z,9.36
2024-03-08T09:02:28.635Z,9.36
2024-03-08T09:04:55.421Z,9.29
2024-03-08T09:07:22.605Z,9.36
2024-03-08T09:09:49.206Z,9.35
2024-03-08T09:12:15.828Z,9.31
2024-03-08T09:14:42.479Z,9.41
2024-03-08T09:17:09.704Z,9.41
2024-03-08T09:19:37.771Z,9.45
2024-03-08T09:22:05.625Z,9.47
2024-03-08T09:24:32.540Z,9.47
2024-03-08T09:27:01.649Z,9.41
2024-03-08T09:29:28.275Z,9.35
2024-03-08T09:31:55.070Z,9.42
2024-03-08T09:34:25.745Z,9.40
2024-03-08T09:36:57.288Z,9.42
2024-03-08T09:39:25.681Z,9.57
2024-03-08T09:41:53.565Z,9.60
2024-03-08T09:44:20.677Z,9.60
2024-03-08T09:46:53.592Z,9.61
2024-03-08T09:49:20.857Z,9.60
2024-03-08T09:51:49.742Z,9.55
2024-03-08T09:54:22.975Z,9.57
2024-03-08T09:56:52.655Z,9.64
2024-03-08T09:59:28.344Z,9.65
2024-03-08T10:02:00.217Z,9.65
2024-03-08T10:04:29.611Z,9.66
2024-03-08T10:06:58.129Z,9.59
2024-03-08T10:09:26.301Z,9.71
2024-03-08T10:11:58.961Z,9.71
2024-03-08T10:14:27.758Z,9.71
2024-03-08T10:16:54.489Z,9.80
2024-03-08T10:19:21.823Z,9.80
2024-03-08T10:21:50.095Z,9.82
2024-03-08T10:24:16.696Z,9.83
2024-03-08T10:26:45.200Z,9.89
2024-03-08T10:29:16.527Z,9.92
2024-03-08T10:31:46.534Z,9.97
2024-03-08T10:34:13.691Z,10.00
2024-03-08T10:36:41.659Z,10.06
2024-03-08T10:39:37.894Z,10.10
2024-03-08T10:42:06.110Z,10.16
2024-03-08T10:44:45.508Z,10.23
2024-03-08T10:47:18.905Z,10.28
2024-03-08T10:50:10.991Z,10.28
2024-03-08T10:52:40.548Z,10.30
2024-03-08T10:55:13.643Z,10.22
2024-03-08T10:57:42.471Z,10.29
2024-03-08T11:00:12.609Z,10.19
2024-03-08T11:02:39.353Z,10.32
2024-03-08T11:05:07.540Z,10.29
2024-03-08T11:07:37.163Z,10.20
2024-03-08T11:10:07.012Z,10.31
2024-03-08T11:12:38.287Z,10.37
2024-03-08T11:15:19.900Z,10.36
2024-03-08T11:17:50.434Z,10.45
2024-03-08T11:20:24.269Z,10.43
2024-03-08T11:22:52.805Z,10.49
2024-03-08T11:25:33.103Z,10.52
2024-03-08T11:28:09.000Z,10.58
2024-03-08T11:30:35.551Z,10.53
2024-03-08T11:33:04.603Z,10.71
2024-03-08T11:35:31.233Z,10.78
2024-03-08T11:38:01.770Z,10.90
2024-03-08T11:40:28.612Z,10.93
2024-03-08T11:42:56.444Z,10.93
2024-03-08T11:45:23.021Z,10.97
2024-03-08T11:47:50.636Z,11.02
2024-03-08T11:50:20.301Z,11.04
2024-03-08T11:52:47.845Z,11.13
2024-03-08T11:55:14.811Z,11.16
2024-03-08T11:57:43.168Z,11.15
2024-03-08T12:00:24.865Z,11.19
2024-03-08T12:03:04.540Z,11.18
2024-03-08T12:05:32.397Z,11.22
2024-03-08T12:08:00.068Z,11.27
2024-03-08T12:10:27.510Z,11.31
2024-03-08T12:12:55.773Z,11.31
2024-03-08T12:15:24.017Z,11.32
2024-03-08T12:17:52.951Z,11.31
2024-03-08T12:20:24.202Z,11.24
2024-03-08T12:22:53.811Z,11.13
2024-03-08T12:25:21.712Z,11.21
2024-03-08T12:27:48.480Z,11.18
2024-03-08T12:30:23.211Z,11.18
2024-03-08T12:32:57.935Z,11.23
2024-03-08T12:35:26.878Z,11.14
2024-03-08T12:37:55.635Z,11.16
2024-03-08T12:40:29.893Z,11.16
2024-03-08T12:42:57.274Z,11.11
2024-03-08T12:45:25.304Z,11.08
2024-03-08T12:47:52.933Z,11.04
2024-03-08T12:50:20.084Z,11.05
2024-03-08T12:52:46.624Z,10.88
2024-03-08T12:55:13.790Z,10.93
2024-03-08T12:57:40.469Z,11.13
2024-03-08T13:00:07.977Z,11.11
2024-03-08T13:02:34.448Z,11.09
2024-03-08T13:05:01.086Z,11.04
2024-03-08T13:07:30.461Z,11.10
2024-03-08T13:09:58.145Z,11.04
2024-03-08T13:12:24.923Z,11.09
2024-03-08T13:14:51.527Z,11.10
2024-03-08T13:17:19.388Z,11.10
2024-03-08T13:19:46.134Z,11.05
2024-03-08T13:22:17.588Z,11.08
2024-03-08T13:24:46.347Z,11.05
2024-03-08T13:27:23.129Z,10.94
2024-03-08T13:29:50.043Z,10.89
2024-03-08T13:32:17.241Z,10.83
2024-03-08T13:34:45.997Z,10.85
2024-03-08T13:37:12.829Z,10.90
2024-03-08T13:39:42.255Z,10.84
2024-03-08T13:42:10.948Z,10.82
2024-03-08T13:44:38.031Z,10.91
2024-03-08T13:47:05.911Z,10.94
2024-03-08T13:49:33.118Z,11.00
2024-03-08T13:52:02.533Z,11.04
2024-03-08T13:54:31.763Z,11.07
2024-03-08T13:56:59.399Z,11.08
2024-03-08T13:59:26.089Z,11.06
2024-03-08T14:01:52.686Z,11.04
2024-03-08T14:04:19.288Z,11.03
2024-03-08T14:06:46.232Z,11.07
2024-03-08T14:09:18.840Z,11.05
2024-03-08T14:11:45.516Z,11.01
2024-03-08T14:14:15.689Z,11.10
2024-03-08T14:16:42.336Z,11.13
2024-03-08T14:19:11.154Z,11.14
2024-03-08T14:21:40.277Z,11.05
2024-03-08T14:24:07.747Z,11.12
2024-03-08T14:26:35.151Z,11.07
2024-03-08T14:29:01.826Z,11.05
2024-03-08T14:31:29.217Z,11.04
2024-03-08T14:33:56.942Z,11.01
2024-03-08T14:36:24.654Z,11.07
2024-03-08T14:38:51.148Z,11.00
2024-03-08T14:41:17.782Z,10.95
2024-03-08T14:43:46.058Z,10.96
2024-03-08T14:46:18.549Z,10.92
2024-03-08T14:48:46.513Z,10.87
2024-03-08T14:51:15.437Z,10.89
2024-03-08T14:53:42.282Z,10.75
2024-03-08T14:56:09.771Z,10.86
2024-03-08T14:58:36.619Z,10.84
2024-03-08T15:01:03.905Z,10.87
2024-03-08T15:03:30.988Z,10.77
2024-03-08T15:05:57.595Z,10.71
2024-03-08T15:08:25.678Z,10.79
2024-03-08T15:10:55.548Z,10.80
2024-03-08T15:13:24.048Z,10.82
2024-03-08T15:15:55.971Z,10.78
2024-03-08T15:18:26.895Z,10.77
2024-03-08T15:20:54.236Z,10.70
2024-03-08T15:23:21.766Z,10.70
2024-03-08T15:25:50.216Z,10.60
2024-03-08T15:28:20.382Z,10.68
2024-03-08T15:30:55.397Z,10.68
2024-03-08T15:33:26.816Z,10.68
2024-03-08T15:35:59.901Z,10.65
2024-03-08T15:38:28.666Z,10.71
2024-03-08T15:40:56.100Z,10.71
2024-03-08T15:43:23.477Z,10.67
2024-03-08T15:45:50.189Z,10.65
2024-03-08T15:48:17.448Z,10.68
2024-03-08T15:50:44.117Z,10.69
2024-03-08T15:53:13.984Z,10.66
2024-03-08T15:55:42.405Z,10.69
2024-03-08T15:58:11.376Z,10.58
2024-03-08T16:00:46.830Z,10.69
2024-03-08T16:03:15.803Z,10.68
2024-03-08T16:05:44.963Z,10.67
2024-03-08T16:08:19.232Z,10.65
2024-03-08T16:10:50.690Z,10.68
2024-03-08T16:13:18.699Z,10.62
2024-03-08T16:15:47.629Z,10.43
2024-03-08T16:18:16.625Z,10.53
2024-03-08T16:20:48.274Z,10.58
2024-03-08T16:23:17.691Z,10.59
2024-03-08T16:25:44.811Z,10.60
2024-03-08T16:28:12.277Z,10.61
2024-03-08T16:30:40.902Z,10.66
2024-03-08T16:33:07.874Z,10.69
2024-03-08T16:35:37.068Z,10.58
2024-03-08T16:38:03.855Z,10.57
2024-03-08T16:40:30.998Z,10.53
2024-03-08T16:42:57.581Z,10.45
2024-03-08T16:45:24.714Z,10.47
2024-03-08T16:47:57.309Z,10.54
2024-03-08T16:50:24.538Z,10.48
2024-03-08T16:52:56.601Z,10.45
2024-03-08T16:55:25.324Z,10.43
2024-03-08T16:57:51.922Z,10.39
2024-03-08T17:00:23.504Z,10.37
2024-03-08T17:02:50.998Z,10.42
2024-03-08T17:05:17.975Z,10.45
2024-03-08T17:07:49.666Z,10.39
2024-03-08T17:10:19.218Z,10.32
2024-03-08T17:12:50.626Z,10.40
2024-03-08T17:15:23.846Z,10.35
2024-03-08T17:17:54.090Z,10.32
2024-03-08T17:20:22.781Z,10.23
2024-03-08T17:22:50.954Z,10.26
2024-03-08T17:25:21.331Z,10.22
2024-03-08T17:27:55.593Z,10.02
2024-03-08T17:30:28.024Z,9.68
2024-03-08T17:33:00.339Z,9.73
2024-03-08T17:35:29.690Z,9.65
2024-03-08T17:37:57.910Z,9.63
2024-03-08T17:40:26.997Z,9.63
2024-03-08T17:42:55.565Z,9.59
2024-03-08T17:45:24.051Z,9.36
2024-03-08T17:47:51.898Z,9.10
2024-03-08T17:50:19.609Z,8.99
2024-03-08T17:52:47.527Z,8.80
2024-03-08T17:55:15.102Z,8.67
2024-03-08T17:57:48.907Z,8.58
2024-03-08T18:00:40.023Z,8.42
2024-03-08T18:03:06.824Z,8.35
2024-03-08T18:05:33.787Z,8.33
2024-03-08T18:08:01.754Z,8.25
2024-03-08T18:10:31.065Z,8.25
2024-03-08T18:12:59.865Z,8.24
2024-03-08T18:15:27.595Z,8.26
2024-03-08T18:17:56.476Z,8.34
2024-03-08T18:20:32.349Z,8.37
2024-03-08T18:23:03.930Z,8.28
2024-03-08T18:25:32.419Z,8.33
2024-03-08T18:28:06.875Z,8.17
2024-03-08T18:30:34.040Z,8.27
2024-03-08T18:33:00.612Z,8.29
2024-03-08T18:35:27.313Z,8.43
2024-03-08T18:37:57.067Z,8.47
2024-03-08T18:40:24.596Z,8.56
2024-03-08T18:42:52.761Z,8.63
2024-03-08T18:45:21.939Z,8.40
2024-03-08T18:47:50.526Z,8.72
2024-03-08T18:50:25.377Z,8.70
2024-03-08T18:52:53.077Z,8.73
2024-03-08T18:55:25.300Z,8.80
2024-03-08T18:57:55.754Z,8.85
2024-03-08T19:00:22.760Z,8.81
2024-03-08T19:02:50.976Z,8.86
2024-03-08T19:05:18.342Z,8.68
2024-03-08T19:07:46.407Z,8.60
2024-03-08T19:10:15.386Z,8.60
2024-03-08T19:12:44.558Z,8.66
2024-03-08T19:15:11.364Z,8.63
2024-03-08T19:17:38.145Z,8.56
2024-03-08T19:20:07.566Z,8.73
2024-03-08T19:22:34.198Z,8.85
2024-03-08T19:25:03.176Z,8.92
2024-03-08T19:27:29.739Z,8.95
2024-03-08T19:29:56.330Z,8.97
2024-03-08T19:32:22.899Z,8.88
2024-03-08T19:34:51.785Z,8.79
2024-03-08T19:37:18.462Z,8.75
2024-03-08T19:39:45.894Z,8.79
2024-03-08T19:42:13.241Z,8.76
2024-03-08T19:44:40.512Z,8.70
2024-03-08T19:47:09.174Z,8.74
2024-03-08T19:49:36.671Z,8.45
2024-03-08T19:52:05.118Z,8.66
2024-03-08T19:54:33.622Z,8.58
2024-03-08T19:57:08.857Z,8.63
2024-03-08T19:59:42.836Z,8.65
2024-03-08T20:02:09.958Z,8.51
2024-03-08T20:04:36.825Z,8.57
2024-03-08T20:07:03.515Z,8.62
2024-03-08T20:09:30.434Z,8.73
2024-03-08T20:11:59.674Z,8.78
2024-03-08T20:14:27.665Z,8.82
2024-03-08T20:16:54.249Z,8.87
2024-03-08T20:19:23.042Z,8.94
2024-03-08T20:21:50.012Z,8.95
2024-03-08T20:24:16.675Z,9.01
2024-03-08T20:26:44.007Z,8.98
2024-03-08T20:29:12.936Z,9.08
2024-03-08T20:31:39.459Z,9.11
2024-03-08T20:34:06.664Z,9.11
2024-03-08T20:36:33.452Z,9.12
2024-03-08T20:38:59.986Z,8.92
2024-03-08T20:41:27.911Z,8.97
2024-03-08T20:43:56.286Z,8.79
2024-03-08T20:46:23.249Z,8.90
2024-03-08T20:48:50.744Z,8.81
2024-03-08T20:51:18.299Z,8.76
2024-03-08T20:53:44.820Z,8.82
2024-03-08T20:56:11.532Z,8.95
2024-03-08T20:58:39.334Z,8.95
2024-03-08T21:01:09.866Z,8.89
2024-03-08T21:03:37.757Z,8.97
2024-03-08T21:06:07.330Z,8.97
2024-03-08T21:08:35.401Z,8.98
2024-03-08T21:11:02.030Z,8.99
2024-03-08T21:13:29.038Z,8.96
2024-03-08T21:15:56.836Z,8.85
2024-03-08T21:18:25.973Z,9.07
2024-03-08T21:20:53.707Z,9.11
2024-03-08T21:23:20.620Z,9.11
2024-03-08T21:25:47.409Z,9.21
2024-03-08T21:28:16.523Z,9.15
2024-03-08T21:30:43.034Z,9.12
2024-03-08T21:33:12.382Z,9.13
2024-03-08T21:35:40.246Z,9.20
2024-03-08T21:38:08.241Z,9.22
2024-03-08T21:40:37.397Z,9.21
2024-03-08T21:43:04.923Z,9.18
2024-03-08T21:45:32.442Z,9.17
2024-03-08T21:48:04.244Z,9.16
2024-03-08T21:50:32.610Z,9.13
2024-03-08T21:53:01.297Z,9.09
2024-03-08T21:55:28.444Z,9.07
2024-03-08T21:57:55.290Z,9.15
2024-03-08T22:00:24.565Z,9.19
2024-03-08T22:02:51.608Z,9.23
2024-03-08T22:05:24.561Z,9.24
2024-03-08T22:07:52.094Z,9.28
2024-03-08T22:10:27.939Z,9.29
2024-03-08T22:12:56.519Z,9.32
2024-03-08T22:15:24.673Z,9.35
2024-03-08T22:17:54.067Z,9.38
2024-03-08T22:20:22.754Z,9.36
2024-03-08T22:22:50.934Z,9.37
2024-03-08T22:25:18.616Z,9.36
2024-03-08T22:27:46.031Z,9.40
2024-03-08T22:30:16.498Z,9.42
2024-03-08T22:32:43.583Z,9.43
2024-03-08T22:35:11.341Z,9.40
2024-03-08T22:37:38.037Z,9.40
2024-03-08T22:40:12.165Z,9.40
2024-03-08T22:42:45.888Z,9.37
2024-03-08T22:45:14.332Z,9.32
2024-03-08T22:47:45.268Z,9.35
2024-03-08T22:50:17.469Z,9.13
2024-03-08T22:52:46.247Z,9.24
2024-03-08T22:55:13.794Z,9.23
2024-03-08T22:57:41.367Z,9.24
2024-03-08T23:00:37.925Z,9.27
2024-03-08T23:03:09.147Z,9.28
2024-03-08T23:05:35.758Z,9.30
2024-03-08T23:08:05.245Z,9.27
2024-03-08T23:10:31.859Z,9.15
2024-03-08T23:12:58.882Z,9.05
2024-03-08T23:15:29.003Z,9.13
2024-03-08T23:17:56.898Z,9.16
2024-03-08T23:20:34.085Z,9.15
2024-03-08T23:23:05.171Z,9.19
2024-03-08T23:25:32.435Z,9.17
2024-03-08T23:28:01.728Z,9.19
2024-03-08T23:30:29.702Z,9.22
2024-03-08T23:32:59.028Z,9.22
2024-03-08T23:35:27.496Z,9.09
2024-03-08T23:37:55.279Z,9.22
2024-03-08T23:40:22.020Z,9.23
2024-03-08T23:42:52.247Z,9.10
2024-03-08T23:45:22.042Z,9.07
2024-03-08T23:47:56.888Z,9.11
2024-03-08T23:50:30.969Z,9.09
2024-03-08T23:52:59.751Z,9.10
2024-03-08T23:55:30.280Z,8.96
2024-03-08T23:57:57.808Z,8.93
